sensor_id;sensor_type;location;lat;lon;timestamp;temperature;humidity
11908;DHT22;6014;47.690;9.130;2023-06-22T00:01:28;19.40;99.90
11908;DHT22;6014;47.690;9.130;2023-06-22T00:04:04;19.30;99.90
11908;DHT22;6014;47.690;9.130;2023-06-22T00:06:32;19.30;99.90
11908;DHT22;6014;47.690;9.130;2023-06-22T00:09:00;19.30;99.90
11908;DHT22;6014;47.690;9.130;2023-06-22T00:11:29;19.30;99.90
11908;DHT22;6014;47.690;9.130;2023-06-22T00:14:00;19.30;99.90
11908;DHT22;6014;47.690;9.130;2023-06-22T00:16:28;19.30;99.90
11908;DHT22;6014;47.690;9.130;2023-06-22T00:18:56;19.20;99.90
11908;DHT22;6014;47.690;9.130;2023-06-22T00:21:28;19.20;99.90
11908;DHT22;6014;47.690;9.130;2023-06-22T00:23:57;19.10;99.90
11908;DHT22;6014;47.690;9.130;2023-06-22T00:26:26;19.00;99.90
11908;DHT22;6014;47.690;9.130;2023-06-22T00:28:58;19.00;99.90
11908;DHT22;6014;47.690;9.130;2023-06-22T00:31:26;18.90;99.90
11908;DHT22;6014;47.690;9.130;2023-06-22T00:33:57;18.90;99.90
11908;DHT22;6014;47.690;9.130;2023-06-22T00:36:32;18.80;99.90
11908;DHT22;6014;47.690;9.130;2023-06-22T00:39:06;18.80;99.90
11908;DHT22;6014;47.690;9.130;2023-06-22T00:41:34;18.70;99.90
11908;DHT22;6014;47.690;9.130;2023-06-22T00:44:03;18.70;99.90
11908;DHT22;6014;47.690;9.130;2023-06-22T00:46:31;18.70;99.90
11908;DHT22;6014;47.690;9.130;2023-06-22T00:48:59;18.60;99.90
11908;DHT22;6014;47.690;9.130;2023-06-22T00:51:28;18.60;99.90
11908;DHT22;6014;47.690;9.130;2023-06-22T00:53:58;18.60;99.90
11908;DHT22;6014;47.690;9.130;2023-06-22T00:56:26;18.60;99.90
11908;DHT22;6014;47.690;9.130;2023-06-22T00:58:58;18.60;99.90
11908;DHT22;6014;47.690;9.130;2023-06-22T01:01:26;18.60;99.90
11908;DHT22;6014;47.690;9.130;2023-06-22T01:03:54;18.60;99.90
11908;DHT22;6014;47.690;9.130;2023-06-22T01:06:45;18.60;99.90
11908;DHT22;6014;47.690;9.130;2023-06-22T01:09:24;18.50;99.90
11908;DHT22;6014;47.690;9.130;2023-06-22T01:11:57;18.40;99.90
11908;DHT22;6014;47.690;9.130;2023-06-22T01:14:32;18.30;99.90
11908;DHT22;6014;47.690;9.130;2023-06-22T01:17:05;18.30;99.90
11908;DHT22;6014;47.690;9.130;2023-06-22T01:19:39;18.40;99.90
11908;DHT22;6014;47.690;9.130;2023-06-22T01:22:10;18.30;99.90
11908;DHT22;6014;47.690;9.130;2023-06-22T01:24:57;18.20;99.90
11908;DHT22;6014;47.690;9.130;2023-06-22T01:27:40;18.30;99.90
11908;DHT22;6014;47.690;9.130;2023-06-22T01:30:23;18.30;99.90
11908;DHT22;6014;47.690;9.130;2023-06-22T01:32:54;18.40;99.90
11908;DHT22;6014;47.690;9.130;2023-06-22T01:35:24;18.20;99.90
11908;DHT22;6014;47.690;9.130;2023-06-22T01:37:52;18.30;99.90
11908;DHT22;6014;47.690;9.130;2023-06-22T01:40:22;18.30;99.90
11908;DHT22;6014;47.690;9.130;2023-06-22T01:42:51;18.30;99.90
11908;DHT22;6014;47.690;9.130;2023-06-22T01:45:21;18.30;99.90
11908;DHT22;6014;47.690;9.130;2023-06-22T01:47:50;18.30;99.90
11908;DHT22;6014;47.690;9.130;2023-06-22T01:50:18;18.20;99.90
11908;DHT22;6014;47.690;9.130;2023-06-22T01:52:49;18.20;99.90
11908;DHT22;6014;47.690;9.130;2023-06-22T01:55:17;18.20;99.90
11908;DHT22;6014;47.690;9.130;2023-06-22T01:57:46;18.20;99.90
11908;DHT22;6014;47.690;9.130;2023-06-22T02:00:18;18.20;99.90
11908;DHT22;6014;47.690;9.130;2023-06-22T02:02:53;18.20;99.90
11908;DHT22;6014;47.690;9.130;2023-06-22T02:05:24;18.20;99.90
11908;DHT22;6014;47.690;9.130;2023-06-22T02:08:07;18.20;99.90
11908;DHT22;6014;47.690;9.130;2023-06-22T02:10:46;18.10;99.90
11908;DHT22;6014;47.690;9.130;2023-06-22T02:13:16;18.10;99.90
11908;DHT22;6014;47.690;9.130;2023-06-22T02:15:45;18.10;99.90
11908;DHT22;6014;47.690;9.130;2023-06-22T02:18:15;18.10;99.90
11908;DHT22;6014;47.690;9.130;2023-06-22T02:21:00;18.10;99.90
11908;DHT22;6014;47.690;9.130;2023-06-22T02:23:28;18.10;99.90
11908;DHT22;6014;47.690;9.130;2023-06-22T02:25:56;18.10;99.90
11908;DHT22;6014;47.690;9.130;2023-06-22T02:28:24;18.10;99.90
11908;DHT22;6014;47.690;9.130;2023-06-22T02:30:52;18.00;99.90
11908;DHT22;6014;47.690;9.130;2023-06-22T02:33:22;18.00;99.90
11908;DHT22;6014;47.690;9.130;2023-06-22T02:35:50;18.00;99.90
11908;DHT22;6014;47.690;9.130;2023-06-22T02:38:18;18.00;99.90
11908;DHT22;6014;47.690;9.130;2023-06-22T02:40:51;18.00;99.90
11908;DHT22;6014;47.690;9.130;2023-06-22T02:43:19;17.90;99.90
11908;DHT22;6014;47.690;9.130;2023-06-22T02:45:48;17.90;99.90
11908;DHT22;6014;47.690;9.130;2023-06-22T02:48:16;18.00;99.90
11908;DHT22;6014;47.690;9.130;2023-06-22T02:50:46;17.90;99.90
11908;DHT22;6014;47.690;9.130;2023-06-22T02:53:14;17.80;99.90
11908;DHT22;6014;47.690;9.130;2023-06-22T02:55:42;17.80;99.90
11908;DHT22;6014;47.690;9.130;2023-06-22T02:58:11;17.80;99.90
11908;DHT22;6014;47.690;9.130;2023-06-22T03:00:39;17.60;99.90
11908;DHT22;6014;47.690;9.130;2023-06-22T03:03:07;17.70;99.90
11908;DHT22;6014;47.690;9.130;2023-06-22T03:05:55;17.70;99.90
11908;DHT22;6014;47.690;9.130;2023-06-22T03:08:24;17.50;99.90
11908;DHT22;6014;47.690;9.130;2023-06-22T03:10:52;17.60;99.90
11908;DHT22;6014;47.690;9.130;2023-06-22T03:13:20;17.60;99.90
11908;DHT22;6014;47.690;9.130;2023-06-22T03:15:48;17.50;99.90
11908;DHT22;6014;47.690;9.130;2023-06-22T03:18:30;17.50;99.90
11908;DHT22;6014;47.690;9.130;2023-06-22T03:20:59;17.50;99.90
11908;DHT22;6014;47.690;9.130;2023-06-22T03:23:29;17.50;99.90
11908;DHT22;6014;47.690;9.130;2023-06-22T03:25:57;17.50;99.90
11908;DHT22;6014;47.690;9.130;2023-06-22T03:28:25;17.50;99.90
11908;DHT22;6014;47.690;9.130;2023-06-22T03:31:09;17.60;99.90
11908;DHT22;6014;47.690;9.130;2023-06-22T03:33:37;17.50;99.90
11908;DHT22;6014;47.690;9.130;2023-06-22T03:36:07;17.60;99.90
11908;DHT22;6014;47.690;9.130;2023-06-22T03:38:37;17.60;99.90
11908;DHT22;6014;47.690;9.130;2023-06-22T03:41:08;17.60;99.90
11908;DHT22;6014;47.690;9.130;2023-06-22T03:43:37;17.60;99.90
11908;DHT22;6014;47.690;9.130;2023-06-22T03:46:07;17.60;99.90
11908;DHT22;6014;47.690;9.130;2023-06-22T03:48:35;17.60;99.90
11908;DHT22;6014;47.690;9.130;2023-06-22T03:51:09;17.60;99.90
11908;DHT22;6014;47.690;9.130;2023-06-22T03:53:37;17.70;99.90
11908;DHT22;6014;47.690;9.130;2023-06-22T03:56:06;17.70;99.90
11908;DHT22;6014;47.690;9.130;2023-06-22T03:58:34;17.80;99.90
11908;DHT22;6014;47.690;9.130;2023-06-22T04:01:03;17.70;99.90
11908;DHT22;6014;47.690;9.130;2023-06-22T04:03:33;17.70;99.90
11908;DHT22;6014;47.690;9.130;2023-06-22T04:06:01;17.70;99.90
11908;DHT22;6014;47.690;9.130;2023-06-22T04:08:31;17.80;99.90
11908;DHT22;6014;47.690;9.130;2023-06-22T04:10:59;17.80;99.90
11908;DHT22;6014;47.690;9.130;2023-06-22T04:13:27;17.80;99.90
11908;DHT22;6014;47.690;9.130;2023-06-22T04:15:56;17.80;99.90
11908;DHT22;6014;47.690;9.130;2023-06-22T04:18:34;17.90;99.90
11908;DHT22;6014;47.690;9.130;2023-06-22T04:21:03;18.00;99.90
11908;DHT22;6014;47.690;9.130;2023-06-22T04:23:32;18.10;99.90
11908;DHT22;6014;47.690;9.130;2023-06-22T04:26:01;18.10;99.90
11908;DHT22;6014;47.690;9.130;2023-06-22T04:28:29;18.20;99.90
11908;DHT22;6014;47.690;9.130;2023-06-22T04:31:01;18.30;99.90
11908;DHT22;6014;47.690;9.130;2023-06-22T04:33:42;18.40;99.90
11908;DHT22;6014;47.690;9.130;2023-06-22T04:36:11;18.40;99.90
11908;DHT22;6014;47.690;9.130;2023-06-22T04:38:44;18.60;99.90
11908;DHT22;6014;47.690;9.130;2023-06-22T04:41:12;18.70;99.90
11908;DHT22;6014;47.690;9.130;2023-06-22T04:43:53;18.70;99.90
11908;DHT22;6014;47.690;9.130;2023-06-22T04:46:21;18.80;99.90
11908;DHT22;6014;47.690;9.130;2023-06-22T04:48:49;18.90;99.90
11908;DHT22;6014;47.690;9.130;2023-06-22T04:51:26;18.90;99.90
11908;DHT22;6014;47.690;9.130;2023-06-22T04:53:58;19.00;99.90
11908;DHT22;6014;47.690;9.130;2023-06-22T04:56:27;19.10;99.90
11908;DHT22;6014;47.690;9.130;2023-06-22T04:59:03;19.20;99.90
11908;DHT22;6014;47.690;9.130;2023-06-22T05:01:31;19.30;99.90
11908;DHT22;6014;47.690;9.130;2023-06-22T05:03:59;19.60;99.90
11908;DHT22;6014;47.690;9.130;2023-06-22T05:06:29;19.70;99.90
11908;DHT22;6014;47.690;9.130;2023-06-22T05:09:00;19.90;99.90
11908;DHT22;6014;47.690;9.130;2023-06-22T05:11:30;19.90;99.90
11908;DHT22;6014;47.690;9.130;2023-06-22T05:14:08;20.20;99.90
11908;DHT22;6014;47.690;9.130;2023-06-22T05:16:36;20.30;99.90
11908;DHT22;6014;47.690;9.130;2023-06-22T05:19:04;20.40;99.90
11908;DHT22;6014;47.690;9.130;2023-06-22T05:21:32;20.50;99.90
11908;DHT22;6014;47.690;9.130;2023-06-22T05:24:02;20.70;99.90
11908;DHT22;6014;47.690;9.130;2023-06-22T05:26:33;20.90;99.90
11908;DHT22;6014;47.690;9.130;2023-06-22T05:29:02;21.20;99.90
11908;DHT22;6014;47.690;9.130;2023-06-22T05:31:31;21.30;99.90
11908;DHT22;6014;47.690;9.130;2023-06-22T05:33:59;21.80;99.90
11908;DHT22;6014;47.690;9.130;2023-06-22T05:36:27;22.30;99.90
11908;DHT22;6014;47.690;9.130;2023-06-22T05:38:57;22.30;99.90
11908;DHT22;6014;47.690;9.130;2023-06-22T05:41:26;22.30;99.90
11908;DHT22;6014;47.690;9.130;2023-06-22T05:43:54;22.40;99.90
11908;DHT22;6014;47.690;9.130;2023-06-22T05:46:23;22.90;99.90
11908;DHT22;6014;47.690;9.130;2023-06-22T05:48:51;23.10;99.90
11908;DHT22;6014;47.690;9.130;2023-06-22T05:51:27;23.00;99.90
11908;DHT22;6014;47.690;9.130;2023-06-22T05:53:55;22.70;99.90
11908;DHT22;6014;47.690;9.130;2023-06-22T05:56:23;23.20;99.90
11908;DHT22;6014;47.690;9.130;2023-06-22T05:58:53;23.40;99.90
11908;DHT22;6014;47.690;9.130;2023-06-22T06:01:21;23.60;99.90
11908;DHT22;6014;47.690;9.130;2023-06-22T06:03:49;23.50;99.90
11908;DHT22;6014;47.690;9.130;2023-06-22T06:06:19;23.50;99.90
11908;DHT22;6014;47.690;9.130;2023-06-22T06:08:49;23.90;99.90
11908;DHT22;6014;47.690;9.130;2023-06-22T06:11:18;23.90;99.90
11908;DHT22;6014;47.690;9.130;2023-06-22T06:13:47;23.70;99.90
11908;DHT22;6014;47.690;9.130;2023-06-22T06:16:17;23.30;99.90
11908;DHT22;6014;47.690;9.130;2023-06-22T06:18:50;23.70;99.90
11908;DHT22;6014;47.690;9.130;2023-06-22T06:21:20;24.00;99.90
11908;DHT22;6014;47.690;9.130;2023-06-22T06:23:48;24.10;99.90
11908;DHT22;6014;47.690;9.130;2023-06-22T06:26:16;24.10;99.90
11908;DHT22;6014;47.690;9.130;2023-06-22T06:28:45;24.60;99.90
11908;DHT22;6014;47.690;9.130;2023-06-22T06:31:14;24.20;99.90
11908;DHT22;6014;47.690;9.130;2023-06-22T06:33:46;24.30;99.90
11908;DHT22;6014;47.690;9.130;2023-06-22T06:36:14;24.70;99.90
11908;DHT22;6014;47.690;9.130;2023-06-22T06:38:43;25.00;99.90
11908;DHT22;6014;47.690;9.130;2023-06-22T06:41:15;24.70;99.90
11908;DHT22;6014;47.690;9.130;2023-06-22T06:43:44;24.40;99.90
11908;DHT22;6014;47.690;9.130;2023-06-22T06:46:12;24.40;99.90
11908;DHT22;6014;47.690;9.130;2023-06-22T06:48:40;25.20;99.90
11908;DHT22;6014;47.690;9.130;2023-06-22T06:51:20;25.20;99.90
11908;DHT22;6014;47.690;9.130;2023-06-22T06:53:49;25.60;99.90
11908;DHT22;6014;47.690;9.130;2023-06-22T06:56:17;26.00;99.90
11908;DHT22;6014;47.690;9.130;2023-06-22T06:58:45;25.80;99.90
11908;DHT22;6014;47.690;9.130;2023-06-22T07:01:14;25.50;99.90
11908;DHT22;6014;47.690;9.130;2023-06-22T07:03:42;24.80;99.90
11908;DHT22;6014;47.690;9.130;2023-06-22T07:06:10;25.50;99.90
11908;DHT22;6014;47.690;9.130;2023-06-22T07:08:39;26.10;99.90
11908;DHT22;6014;47.690;9.130;2023-06-22T07:11:08;26.40;99.90
11908;DHT22;6014;47.690;9.130;2023-06-22T07:13:47;25.90;99.90
11908;DHT22;6014;47.690;9.130;2023-06-22T07:16:15;26.10;99.90
11908;DHT22;6014;47.690;9.130;2023-06-22T07:18:43;26.10;99.90
11908;DHT22;6014;47.690;9.130;2023-06-22T07:21:11;25.80;99.90
11908;DHT22;6014;47.690;9.130;2023-06-22T07:23:41;26.20;99.90
11908;DHT22;6014;47.690;9.130;2023-06-22T07:26:09;26.70;99.90
11908;DHT22;6014;47.690;9.130;2023-06-22T07:28:39;26.90;99.90
11908;DHT22;6014;47.690;9.130;2023-06-22T07:31:08;26.90;99.90
11908;DHT22;6014;47.690;9.130;2023-06-22T07:33:36;26.90;99.90
11908;DHT22;6014;47.690;9.130;2023-06-22T07:36:04;27.00;99.90
11908;DHT22;6014;47.690;9.130;2023-06-22T07:38:35;27.50;99.90
11908;DHT22;6014;47.690;9.130;2023-06-22T07:41:04;26.90;99.90
11908;DHT22;6014;47.690;9.130;2023-06-22T07:43:44;26.90;99.90
11908;DHT22;6014;47.690;9.130;2023-06-22T07:46:12;27.20;99.90
11908;DHT22;6014;47.690;9.130;2023-06-22T07:48:41;27.40;99.90
11908;DHT22;6014;47.690;9.130;2023-06-22T07:51:10;27.90;99.90
11908;DHT22;6014;47.690;9.130;2023-06-22T07:53:40;27.90;99.90
11908;DHT22;6014;47.690;9.130;2023-06-22T07:56:11;27.80;99.90
11908;DHT22;6014;47.690;9.130;2023-06-22T07:58:40;27.70;99.90
11908;DHT22;6014;47.690;9.130;2023-06-22T08:01:08;27.70;99.90
11908;DHT22;6014;47.690;9.130;2023-06-22T08:03:36;26.90;99.90
11908;DHT22;6014;47.690;9.130;2023-06-22T08:06:05;25.70;99.90
11908;DHT22;6014;47.690;9.130;2023-06-22T08:08:35;25.10;99.90
11908;DHT22;6014;47.690;9.130;2023-06-22T08:11:29;24.40;99.90
11908;DHT22;6014;47.690;9.130;2023-06-22T08:13:57;24.20;99.90
11908;DHT22;6014;47.690;9.130;2023-06-22T08:16:25;24.30;99.90
11908;DHT22;6014;47.690;9.130;2023-06-22T08:18:53;24.30;99.90
11908;DHT22;6014;47.690;9.130;2023-06-22T08:21:22;24.50;99.90
11908;DHT22;6014;47.690;9.130;2023-06-22T08:23:50;24.50;99.90
11908;DHT22;6014;47.690;9.130;2023-06-22T08:26:24;24.40;99.90
11908;DHT22;6014;47.690;9.130;2023-06-22T08:28:54;24.50;99.90
11908;DHT22;6014;47.690;9.130;2023-06-22T08:31:22;24.80;99.90
11908;DHT22;6014;47.690;9.130;2023-06-22T08:33:57;24.60;99.90
11908;DHT22;6014;47.690;9.130;2023-06-22T08:36:25;24.90;99.90
11908;DHT22;6014;47.690;9.130;2023-06-22T08:38:57;25.30;99.90
11908;DHT22;6014;47.690;9.130;2023-06-22T08:41:28;25.50;99.90
11908;DHT22;6014;47.690;9.130;2023-06-22T08:43:57;25.70;99.90
11908;DHT22;6014;47.690;9.130;2023-06-22T08:46:26;26.10;99.90
11908;DHT22;6014;47.690;9.130;2023-06-22T08:48:57;26.40;99.90
11908;DHT22;6014;47.690;9.130;2023-06-22T08:51:39;26.80;99.90
11908;DHT22;6014;47.690;9.130;2023-06-22T08:54:08;26.70;99.90
11908;DHT22;6014;47.690;9.130;2023-06-22T08:56:37;26.70;99.90
11908;DHT22;6014;47.690;9.130;2023-06-22T08:59:07;26.10;99.90
11908;DHT22;6014;47.690;9.130;2023-06-22T09:01:37;26.30;99.90
11908;DHT22;6014;47.690;9.130;2023-06-22T09:04:05;27.20;99.90
11908;DHT22;6014;47.690;9.130;2023-06-22T09:06:36;27.80;99.90
11908;DHT22;6014;47.690;9.130;2023-06-22T09:09:21;28.20;99.90
11908;DHT22;6014;47.690;9.130;2023-06-22T09:11:51;28.00;99.90
11908;DHT22;6014;47.690;9.130;2023-06-22T09:14:21;28.40;99.90
11908;DHT22;6014;47.690;9.130;2023-06-22T09:17:03;29.00;99.90
11908;DHT22;6014;47.690;9.130;2023-06-22T09:19:31;28.70;99.90
11908;DHT22;6014;47.690;9.130;2023-06-22T09:22:07;28.20;99.90
11908;DHT22;6014;47.690;9.130;2023-06-22T09:24:38;27.70;99.90
11908;DHT22;6014;47.690;9.130;2023-06-22T09:27:06;26.90;99.90
11908;DHT22;6014;47.690;9.130;2023-06-22T09:29:36;27.80;99.90
11908;DHT22;6014;47.690;9.130;2023-06-22T09:32:05;27.60;99.90
11908;DHT22;6014;47.690;9.130;2023-06-22T09:34:35;27.50;99.90
11908;DHT22;6014;47.690;9.130;2023-06-22T09:37:03;28.10;99.90
11908;DHT22;6014;47.690;9.130;2023-06-22T09:39:33;28.60;99.90
11908;DHT22;6014;47.690;9.130;2023-06-22T09:42:01;28.80;99.90
11908;DHT22;6014;47.690;9.130;2023-06-22T09:44:30;28.80;99.90
11908;DHT22;6014;47.690;9.130;2023-06-22T09:46:59;28.60;99.90
11908;DHT22;6014;47.690;9.130;2023-06-22T09:49:27;28.20;99.90
11908;DHT22;6014;47.690;9.130;2023-06-22T09:52:13;28.70;99.90
11908;DHT22;6014;47.690;9.130;2023-06-22T09:54:51;28.40;99.90
11908;DHT22;6014;47.690;9.130;2023-06-22T09:57:19;28.00;99.90
11908;DHT22;6014;47.690;9.130;2023-06-22T09:59:47;28.30;99.90
11908;DHT22;6014;47.690;9.130;2023-06-22T10:02:18;28.80;99.90
11908;DHT22;6014;47.690;9.130;2023-06-22T10:04:46;29.60;99.90
11908;DHT22;6014;47.690;9.130;2023-06-22T10:07:15;28.50;99.90
11908;DHT22;6014;47.690;9.130;2023-06-22T10:09:43;29.60;99.90
11908;DHT22;6014;47.690;9.130;2023-06-22T10:12:11;29.70;99.90
11908;DHT22;6014;47.690;9.130;2023-06-22T10:14:39;30.00;99.90
11908;DHT22;6014;47.690;9.130;2023-06-22T10:17:10;30.60;99.90
11908;DHT22;6014;47.690;9.130;2023-06-22T10:19:39;29.60;99.90
11908;DHT22;6014;47.690;9.130;2023-06-22T10:22:21;29.30;99.90
11908;DHT22;6014;47.690;9.130;2023-06-22T10:24:49;29.50;99.90
11908;DHT22;6014;47.690;9.130;2023-06-22T10:27:17;29.90;99.90
11908;DHT22;6014;47.690;9.130;2023-06-22T10:29:45;30.30;99.90
11908;DHT22;6014;47.690;9.130;2023-06-22T10:32:15;30.30;99.90
11908;DHT22;6014;47.690;9.130;2023-06-22T10:34:44;30.40;99.90
11908;DHT22;6014;47.690;9.130;2023-06-22T10:37:12;30.80;99.90
11908;DHT22;6014;47.690;9.130;2023-06-22T10:39:40;31.00;99.50
11908;DHT22;6014;47.690;9.130;2023-06-22T10:42:16;30.90;99.70
11908;DHT22;6014;47.690;9.130;2023-06-22T10:44:44;31.10;99.90
11908;DHT22;6014;47.690;9.130;2023-06-22T10:47:12;31.60;98.60
11908;DHT22;6014;47.690;9.130;2023-06-22T10:49:42;31.60;98.60
11908;DHT22;6014;47.690;9.130;2023-06-22T10:52:12;30.20;99.80
11908;DHT22;6014;47.690;9.130;2023-06-22T10:54:45;30.70;99.90
11908;DHT22;6014;47.690;9.130;2023-06-22T10:57:15;30.10;99.90
11908;DHT22;6014;47.690;9.130;2023-06-22T10:59:43;29.60;99.90
11908;DHT22;6014;47.690;9.130;2023-06-22T11:02:12;29.10;99.90
11908;DHT22;6014;47.690;9.130;2023-06-22T11:04:47;29.40;99.90
11908;DHT22;6014;47.690;9.130;2023-06-22T11:07:17;29.00;99.90
11908;DHT22;6014;47.690;9.130;2023-06-22T11:09:45;28.80;99.90
11908;DHT22;6014;47.690;9.130;2023-06-22T11:12:24;29.00;99.90
11908;DHT22;6014;47.690;9.130;2023-06-22T11:14:58;28.70;99.90
11908;DHT22;6014;47.690;9.130;2023-06-22T11:17:33;28.70;99.90
11908;DHT22;6014;47.690;9.130;2023-06-22T11:20:01;28.80;99.90
11908;DHT22;6014;47.690;9.130;2023-06-22T11:22:33;28.80;99.90
11908;DHT22;6014;47.690;9.130;2023-06-22T11:25:02;28.90;99.90
11908;DHT22;6014;47.690;9.130;2023-06-22T11:27:37;28.70;99.90
11908;DHT22;6014;47.690;9.130;2023-06-22T11:30:14;29.30;99.90
11908;DHT22;6014;47.690;9.130;2023-06-22T11:32:43;29.60;99.90
11908;DHT22;6014;47.690;9.130;2023-06-22T11:35:11;29.90;99.90
11908;DHT22;6014;47.690;9.130;2023-06-22T11:37:41;29.90;99.90
11908;DHT22;6014;47.690;9.130;2023-06-22T11:40:12;29.80;99.90
11908;DHT22;6014;47.690;9.130;2023-06-22T11:42:40;29.40;99.90
11908;DHT22;6014;47.690;9.130;2023-06-22T11:45:09;29.30;99.90
11908;DHT22;6014;47.690;9.130;2023-06-22T11:47:37;29.30;99.90
11908;DHT22;6014;47.690;9.130;2023-06-22T11:50:07;29.10;99.90
11908;DHT22;6014;47.690;9.130;2023-06-22T11:52:35;29.20;99.90
11908;DHT22;6014;47.690;9.130;2023-06-22T11:55:06;29.10;99.90
11908;DHT22;6014;47.690;9.130;2023-06-22T11:57:35;29.10;99.90
11908;DHT22;6014;47.690;9.130;2023-06-22T12:00:05;29.10;99.90
11908;DHT22;6014;47.690;9.130;2023-06-22T12:03:02;29.30;99.90
11908;DHT22;6014;47.690;9.130;2023-06-22T12:05:30;29.30;99.90
11908;DHT22;6014;47.690;9.130;2023-06-22T12:07:58;29.30;99.90
11908;DHT22;6014;47.690;9.130;2023-06-22T12:10:28;29.40;99.90
11908;DHT22;6014;47.690;9.130;2023-06-22T12:12:57;29.30;99.90
11908;DHT22;6014;47.690;9.130;2023-06-22T12:15:27;29.40;99.90
11908;DHT22;6014;47.690;9.130;2023-06-22T12:17:55;29.40;99.90
11908;DHT22;6014;47.690;9.130;2023-06-22T12:20:23;29.20;99.90
11908;DHT22;6014;47.690;9.130;2023-06-22T12:22:53;29.10;99.90
11908;DHT22;6014;47.690;9.130;2023-06-22T12:25:23;29.20;99.90
11908;DHT22;6014;47.690;9.130;2023-06-22T12:27:53;29.20;99.90
11908;DHT22;6014;47.690;9.130;2023-06-22T12:30:24;29.10;99.90
11908;DHT22;6014;47.690;9.130;2023-06-22T12:32:52;29.10;99.90
11908;DHT22;6014;47.690;9.130;2023-06-22T12:35:22;29.30;99.90
11908;DHT22;6014;47.690;9.130;2023-06-22T12:37:51;29.20;99.90
11908;DHT22;6014;47.690;9.130;2023-06-22T12:40:19;29.00;99.90
11908;DHT22;6014;47.690;9.130;2023-06-22T12:42:47;29.00;99.90
11908;DHT22;6014;47.690;9.130;2023-06-22T12:45:17;29.20;99.90
11908;DHT22;6014;47.690;9.130;2023-06-22T12:47:50;29.30;99.90
11908;DHT22;6014;47.690;9.130;2023-06-22T12:50:18;29.30;99.90
11908;DHT22;6014;47.690;9.130;2023-06-22T12:52:46;29.50;99.90
11908;DHT22;6014;47.690;9.130;2023-06-22T12:55:14;29.40;99.90
11908;DHT22;6014;47.690;9.130;2023-06-22T12:57:43;29.40;99.90
11908;DHT22;6014;47.690;9.130;2023-06-22T13:00:12;30.10;99.90
11908;DHT22;6014;47.690;9.130;2023-06-22T13:02:41;30.10;99.90
11908;DHT22;6014;47.690;9.130;2023-06-22T13:05:10;30.00;99.90
11908;DHT22;6014;47.690;9.130;2023-06-22T13:07:38;29.90;99.90
11908;DHT22;6014;47.690;9.130;2023-06-22T13:10:07;29.90;99.90
11908;DHT22;6014;47.690;9.130;2023-06-22T13:12:35;30.00;99.90
11908;DHT22;6014;47.690;9.130;2023-06-22T13:15:04;29.90;99.90
11908;DHT22;6014;47.690;9.130;2023-06-22T13:17:33;30.40;99.90
11908;DHT22;6014;47.690;9.130;2023-06-22T13:20:04;31.30;99.90
11908;DHT22;6014;47.690;9.130;2023-06-22T13:22:33;32.00;99.90
11908;DHT22;6014;47.690;9.130;2023-06-22T13:25:07;32.40;99.10
11908;DHT22;6014;47.690;9.130;2023-06-22T13:27:39;32.30;98.90
11908;DHT22;6014;47.690;9.130;2023-06-22T13:30:08;32.20;99.10
11908;DHT22;6014;47.690;9.130;2023-06-22T13:32:41;32.30;98.40
11908;DHT22;6014;47.690;9.130;2023-06-22T13:35:11;32.20;98.20
11908;DHT22;6014;47.690;9.130;2023-06-22T13:37:39;32.50;97.80
11908;DHT22;6014;47.690;9.130;2023-06-22T13:40:08;32.50;97.80
11908;DHT22;6014;47.690;9.130;2023-06-22T13:42:36;32.80;97.80
11908;DHT22;6014;47.690;9.130;2023-06-22T13:45:11;33.00;97.40
11908;DHT22;6014;47.690;9.130;2023-06-22T13:47:40;32.90;95.70
11908;DHT22;6014;47.690;9.130;2023-06-22T13:50:09;32.90;96.40
11908;DHT22;6014;47.690;9.130;2023-06-22T13:52:40;32.60;96.30
11908;DHT22;6014;47.690;9.130;2023-06-22T13:55:09;32.10;97.30
11908;DHT22;6014;47.690;9.130;2023-06-22T13:57:37;31.80;98.30
11908;DHT22;6014;47.690;9.130;2023-06-22T14:00:07;31.40;98.80
11908;DHT22;6014;47.690;9.130;2023-06-22T14:02:36;31.20;99.50
11908;DHT22;6014;47.690;9.130;2023-06-22T14:05:04;30.80;99.90
11908;DHT22;6014;47.690;9.130;2023-06-22T14:07:33;30.80;99.70
11908;DHT22;6014;47.690;9.130;2023-06-22T14:10:03;31.10;99.90
11908;DHT22;6014;47.690;9.130;2023-06-22T14:12:31;31.30;99.40
11908;DHT22;6014;47.690;9.130;2023-06-22T14:14:59;31.40;98.30
11908;DHT22;6014;47.690;9.130;2023-06-22T14:17:28;31.60;97.30
11908;DHT22;6014;47.690;9.130;2023-06-22T14:19:57;31.70;94.10
11908;DHT22;6014;47.690;9.130;2023-06-22T14:22:25;31.70;94.00
11908;DHT22;6014;47.690;9.130;2023-06-22T14:24:57;31.80;91.40
11908;DHT22;6014;47.690;9.130;2023-06-22T14:27:27;31.50;90.70
11908;DHT22;6014;47.690;9.130;2023-06-22T14:29:55;31.40;90.50
11908;DHT22;6014;47.690;9.130;2023-06-22T14:32:23;31.20;89.40
11908;DHT22;6014;47.690;9.130;2023-06-22T14:34:52;30.70;88.10
11908;DHT22;6014;47.690;9.130;2023-06-22T14:37:20;30.40;88.50
11908;DHT22;6014;47.690;9.130;2023-06-22T14:40:00;30.10;86.00
11908;DHT22;6014;47.690;9.130;2023-06-22T14:42:30;29.70;88.90
11908;DHT22;6014;47.690;9.130;2023-06-22T14:44:58;29.60;90.80
11908;DHT22;6014;47.690;9.130;2023-06-22T14:47:26;29.40;90.80
11908;DHT22;6014;47.690;9.130;2023-06-22T14:49:55;29.60;90.40
11908;DHT22;6014;47.690;9.130;2023-06-22T14:52:23;29.90;86.60
11908;DHT22;6014;47.690;9.130;2023-06-22T14:54:52;30.30;85.00
11908;DHT22;6014;47.690;9.130;2023-06-22T14:57:20;30.50;82.40
11908;DHT22;6014;47.690;9.130;2023-06-22T14:59:51;30.60;81.60
11908;DHT22;6014;47.690;9.130;2023-06-22T15:02:19;30.70;79.80
11908;DHT22;6014;47.690;9.130;2023-06-22T15:04:48;31.00;79.40
11908;DHT22;6014;47.690;9.130;2023-06-22T15:07:18;31.40;80.30
11908;DHT22;6014;47.690;9.130;2023-06-22T15:09:46;31.70;80.90
11908;DHT22;6014;47.690;9.130;2023-06-22T15:12:14;32.10;80.50
11908;DHT22;6014;47.690;9.130;2023-06-22T15:14:51;32.20;77.70
11908;DHT22;6014;47.690;9.130;2023-06-22T15:17:19;32.30;76.30
11908;DHT22;6014;47.690;9.130;2023-06-22T15:19:47;32.50;77.20
11908;DHT22;6014;47.690;9.130;2023-06-22T15:22:17;32.00;77.90
11908;DHT22;6014;47.690;9.130;2023-06-22T15:24:53;31.70;79.00
11908;DHT22;6014;47.690;9.130;2023-06-22T15:27:25;31.10;81.80
11908;DHT22;6014;47.690;9.130;2023-06-22T15:29:54;30.80;83.50
11908;DHT22;6014;47.690;9.130;2023-06-22T15:32:23;30.40;82.90
11908;DHT22;6014;47.690;9.130;2023-06-22T15:34:51;29.90;84.80
11908;DHT22;6014;47.690;9.130;2023-06-22T15:37:20;29.90;87.50
11908;DHT22;6014;47.690;9.130;2023-06-22T15:39:48;30.20;85.80
11908;DHT22;6014;47.690;9.130;2023-06-22T15:42:17;30.20;81.90
11908;DHT22;6014;47.690;9.130;2023-06-22T15:44:45;30.30;83.20
11908;DHT22;6014;47.690;9.130;2023-06-22T15:47:15;30.30;82.70
11908;DHT22;6014;47.690;9.130;2023-06-22T15:49:48;30.30;81.90
11908;DHT22;6014;47.690;9.130;2023-06-22T15:52:32;30.50;81.20
11908;DHT22;6014;47.690;9.130;2023-06-22T15:55:00;30.70;80.10
11908;DHT22;6014;47.690;9.130;2023-06-22T15:57:28;30.90;79.30
11908;DHT22;6014;47.690;9.130;2023-06-22T15:59:57;30.90;77.90
11908;DHT22;6014;47.690;9.130;2023-06-22T16:02:27;30.90;77.80
11908;DHT22;6014;47.690;9.130;2023-06-22T16:04:57;30.70;76.30